Terminal Aerodrome Forecast
Issued by NWS

Home | Current Version | Previous Version | Graphics & Text | Print | Product List | Glossary On
Versions: 1 2 3 4 5 6 7 8 9 10 11 12 13 14 15 16 17 18 19 20 21 22 23 24 25
000
FTUS43 KTOP 160500
TAFMHK
TAF
KMHK 160520Z 1606/1706 04002KT P6SM SKC
      TEMPO 1611/1614 5SM BR
     FM161400 14007KT P6SM FEW150
     FM162300 14004KT P6SM BKN035=

USA.gov is the U.S. government's official web portal to all federal, state and local government web resources and services.